Time;durP1;ratioP1;P1;durP2;ratioP2;P2;SDS_P1;SDS_P2;PMS_P1;PMS_P2;Temp;Humidity;BMP_temperature;BMP_pressure;BME280_temperature;BME280_humidity;BME280_pressure;Samples;Min_cycle;Max_cycle;Signal;HPM_P1;HPM_P2
2023/01/26 00:01:28;;;;;;;60.42;24.88;;;1.30;99.90;;;;;;5031344;28;20125;-62
2023/01/26 00:03:54;;;;;;;57.40;25.02;;;1.30;99.90;;;;;;5032478;28;20054;-62
2023/01/26 00:06:21;;;;;;;57.03;24.63;;;1.30;99.90;;;;;;5032120;28;20132;-62
2023/01/26 00:08:49;;;;;;;71.22;27.77;;;1.30;99.90;;;;;;5032607;28;20453;-62
2023/01/26 00:11:18;;;;;;;67.13;27.20;;;1.30;99.90;;;;;;5032146;28;20494;-62
2023/01/26 00:13:44;;;;;;;64.80;25.27;;;1.30;99.90;;;;;;5014906;28;20033;-62
2023/01/26 00:16:12;;;;;;;62.47;26.80;;;1.30;99.90;;;;;;5031381;28;20552;-62
2023/01/26 00:18:39;;;;;;;57.60;25.25;;;1.30;99.90;;;;;;5031525;28;20498;-62
2023/01/26 00:21:05;;;;;;;73.88;29.17;;;1.30;99.90;;;;;;5031983;28;20437;-62
2023/01/26 00:23:32;;;;;;;60.58;25.15;;;1.30;99.90;;;;;;5014339;28;20124;-62
2023/01/26 00:25:58;;;;;;;66.70;28.42;;;1.40;99.90;;;;;;5031783;28;20069;-62
2023/01/26 00:28:24;;;;;;;68.18;27.05;;;1.30;99.90;;;;;;5032730;28;20046;-62
2023/01/26 00:30:49;;;;;;;68.82;28.75;;;1.40;99.90;;;;;;5014444;28;20037;-62
2023/01/26 00:33:15;;;;;;;66.28;27.05;;;1.40;99.90;;;;;;5031615;28;20045;-62
2023/01/26 00:35:43;;;;;;;71.55;28.00;;;1.40;99.90;;;;;;5031709;28;20128;-62
2023/01/26 00:38:12;;;;;;;70.00;29.10;;;1.40;99.90;;;;;;5031747;28;20045;-62
2023/01/26 00:40:38;;;;;;;55.10;24.70;;;1.40;99.90;;;;;;5030891;28;20073;-62
2023/01/26 00:43:04;;;;;;;57.65;23.92;;;1.30;99.90;;;;;;5030889;28;20053;-62
2023/01/26 00:45:30;;;;;;;64.30;26.80;;;1.40;99.90;;;;;;5014442;28;20049;-63
2023/01/26 00:47:56;;;;;;;64.95;25.27;;;1.40;99.90;;;;;;5031625;28;20053;-62
2023/01/26 00:50:21;;;;;;;63.50;27.15;;;1.40;99.90;;;;;;5030822;28;20406;-62
2023/01/26 00:52:47;;;;;;;61.80;26.95;;;1.40;99.90;;;;;;5032426;28;20088;-62
2023/01/26 00:55:13;;;;;;;58.20;25.73;;;1.40;99.90;;;;;;5052249;28;20490;-62
2023/01/26 00:57:39;;;;;;;73.65;27.40;;;1.40;99.90;;;;;;5050001;28;20104;-62
2023/01/26 01:00:05;;;;;;;70.35;31.50;;;1.40;99.90;;;;;;5050772;28;20478;-62
2023/01/26 01:02:31;;;;;;;61.80;25.65;;;1.40;99.90;;;;;;5033839;28;20045;-63
2023/01/26 01:04:57;;;;;;;93.05;32.00;;;1.40;99.90;;;;;;5033933;28;20064;-62
2023/01/26 01:07:23;;;;;;;87.68;33.80;;;1.40;99.90;;;;;;5050848;28;20091;-62
2023/01/26 01:09:48;;;;;;;93.10;31.08;;;1.40;99.90;;;;;;5050213;28;20116;-63
2023/01/26 01:12:14;;;;;;;77.50;29.63;;;1.40;99.90;;;;;;5033444;28;20040;-62
2023/01/26 01:14:40;;;;;;;57.30;26.05;;;1.40;99.90;;;;;;5050533;28;20053;-62
2023/01/26 01:17:05;;;;;;;74.63;30.02;;;1.50;99.90;;;;;;5051056;28;20036;-62
2023/01/26 01:19:31;;;;;;;62.47;27.58;;;1.50;99.90;;;;;;5050089;28;20040;-62
2023/01/26 01:21:56;;;;;;;78.65;30.30;;;1.50;99.90;;;;;;5050889;28;20049;-62
2023/01/26 01:24:22;;;;;;;78.82;31.20;;;1.50;99.90;;;;;;5050764;28;20592;-63
2023/01/26 01:26:48;;;;;;;69.28;31.95;;;1.50;99.90;;;;;;5049717;28;20451;-62
2023/01/26 01:29:14;;;;;;;93.63;34.72;;;1.50;99.90;;;;;;5052047;28;20029;-62
2023/01/26 01:31:42;;;;;;;87.07;32.47;;;1.50;99.90;;;;;;5033047;28;20405;-62
2023/01/26 01:34:08;;;;;;;74.05;29.85;;;1.50;99.90;;;;;;5033739;28;20076;-62
2023/01/26 01:36:34;;;;;;;58.65;28.63;;;1.50;99.90;;;;;;5033404;28;20084;-62
2023/01/26 01:39:00;;;;;;;62.88;26.90;;;1.50;99.90;;;;;;5050532;28;20041;-62
2023/01/26 01:41:26;;;;;;;68.10;31.23;;;1.50;99.90;;;;;;5050290;28;20119;-62
2023/01/26 01:44:10;;;;;;;60.25;24.23;;;1.50;99.90;;;;;;5051826;28;20047;-63
2023/01/26 01:46:36;;;;;;;84.70;34.55;;;1.60;99.90;;;;;;5049377;28;20049;-62
2023/01/26 01:49:18;;;;;;;70.40;27.58;;;1.60;99.90;;;;;;5050679;28;20040;-62
2023/01/26 01:51:49;;;;;;;85.25;31.80;;;1.70;99.90;;;;;;5049633;28;20049;-62
2023/01/26 01:54:20;;;;;;;48.83;23.58;;;1.70;99.90;;;;;;5050249;28;20037;-62
2023/01/26 01:56:51;;;;;;;70.90;27.25;;;1.70;99.90;;;;;;5051322;28;20409;-62
2023/01/26 01:59:20;;;;;;;74.63;31.52;;;1.70;99.90;;;;;;5050461;28;20076;-62
2023/01/26 02:01:47;;;;;;;62.22;24.42;;;1.70;99.90;;;;;;5032862;28;20436;-62
2023/01/26 02:04:13;;;;;;;56.83;24.85;;;1.80;99.90;;;;;;5050711;28;20075;-62
2023/01/26 02:06:50;;;;;;;74.60;29.98;;;1.70;99.90;;;;;;5049821;28;20057;-62
2023/01/26 02:12:09;;;;;;;69.10;25.42;;;1.80;99.90;;;;;;5032176;28;20064;-62
2023/01/26 02:14:34;;;;;;;55.70;24.08;;;1.90;99.90;;;;;;5049265;28;20045;-62
2023/01/26 02:17:00;;;;;;;74.75;27.67;;;1.80;99.90;;;;;;5050031;28;20041;-62
2023/01/26 02:20:01;;;;;;;52.50;20.83;;;1.90;99.90;;;;;;5052772;28;20044;-62
2023/01/26 02:22:39;;;;;;;60.47;25.13;;;1.90;99.90;;;;;;5053281;28;20033;-62
2023/01/26 02:25:31;;;;;;;63.20;24.63;;;1.90;99.90;;;;;;5022602;28;20037;-62
2023/01/26 02:27:57;;;;;;;75.93;25.50;;;2.00;99.90;;;;;;5035077;28;20045;-62
2023/01/26 02:30:26;;;;;;;43.10;21.40;;;2.00;99.90;;;;;;5033340;28;20111;-63
2023/01/26 02:32:52;;;;;;;62.67;26.02;;;2.00;99.90;;;;;;5033869;28;20045;-62
2023/01/26 02:35:17;;;;;;;72.78;24.08;;;2.00;99.90;;;;;;5040374;28;20065;-62
2023/01/26 02:37:46;;;;;;;64.40;26.50;;;2.00;99.90;;;;;;5054197;28;20084;-62
2023/01/26 02:40:45;;;;;;;65.82;28.08;;;2.10;99.90;;;;;;5053559;28;20119;-62
2023/01/26 02:43:11;;;;;;;81.90;28.27;;;2.00;99.90;;;;;;5054511;28;20498;-62
2023/01/26 02:45:39;;;;;;;64.70;26.95;;;2.10;99.90;;;;;;5053558;28;20080;-62
2023/01/26 02:48:05;;;;;;;50.35;21.05;;;2.10;99.90;;;;;;5052330;28;20434;-62
2023/01/26 02:50:31;;;;;;;55.33;22.65;;;2.10;99.90;;;;;;5052667;28;20448;-62
2023/01/26 02:52:57;;;;;;;57.13;24.77;;;2.20;99.90;;;;;;5049166;28;20068;-62
2023/01/26 02:55:25;;;;;;;56.42;23.48;;;2.10;99.90;;;;;;5053672;28;20076;-62
2023/01/26 02:58:02;;;;;;;54.20;25.02;;;2.20;99.90;;;;;;5053941;28;20040;-62
2023/01/26 03:00:33;;;;;;;82.68;31.17;;;2.20;99.90;;;;;;5052816;28;20045;-63
2023/01/26 03:03:01;;;;;;;62.90;26.00;;;2.20;99.90;;;;;;5053834;28;20107;-62
2023/01/26 03:05:27;;;;;;;49.83;23.30;;;2.20;99.90;;;;;;5052639;28;20040;-62
2023/01/26 03:08:00;;;;;;;79.85;29.65;;;2.20;99.90;;;;;;5054038;28;20037;-62
2023/01/26 03:10:25;;;;;;;46.13;21.98;;;2.20;99.90;;;;;;5052196;28;20123;-62
2023/01/26 03:12:52;;;;;;;49.08;22.17;;;2.30;99.90;;;;;;5036570;28;20461;-63
2023/01/26 03:29:05;;;;;;;48.08;22.33;;;2.40;99.90;;;;;;5052935;28;20422;-62
2023/01/26 03:31:30;;;;;;;43.60;21.30;;;2.40;99.90;;;;;;5051564;28;20040;-62
2023/01/26 03:33:56;;;;;;;45.85;22.67;;;2.50;99.90;;;;;;5052744;28;20509;-63
2023/01/26 03:36:22;;;;;;;50.13;24.08;;;2.40;99.90;;;;;;5052590;28;20049;-62
2023/01/26 03:38:47;;;;;;;59.90;27.17;;;2.50;99.90;;;;;;5051730;28;20859;-62
2023/01/26 03:57:38;;;;;;;51.40;24.13;;;2.60;99.90;;;;;;5033122;28;20041;-63
2023/01/26 04:00:05;;;;;;;86.97;29.90;;;2.70;99.90;;;;;;5032007;28;20379;-63
2023/01/26 04:08:23;;;;;;;43.17;20.85;;;2.70;99.90;;;;;;5031699;28;20567;-62
2023/01/26 04:10:53;;;;;;;51.83;22.67;;;2.70;99.90;;;;;;5032721;28;20044;-62
2023/01/26 04:21:36;;;;;;;50.42;22.45;;;2.80;99.90;;;;;;5031123;28;20102;-63
2023/01/26 04:24:13;;;;;;;55.58;26.25;;;2.90;99.90;;;;;;5031985;28;20048;-62
2023/01/26 04:26:40;;;;;;;52.85;23.27;;;2.90;99.90;;;;;;5049736;28;20040;-63
2023/01/26 04:29:11;;;;;;;53.95;23.45;;;2.90;99.90;;;;;;5051353;28;20516;-62
2023/01/26 04:31:38;;;;;;;48.03;21.75;;;2.90;99.90;;;;;;5051101;28;20049;-62
2023/01/26 04:34:06;;;;;;;56.00;22.80;;;3.00;99.90;;;;;;5052692;28;20112;-62
2023/01/26 04:36:31;;;;;;;58.25;24.05;;;3.00;99.90;;;;;;5050122;28;20057;-62
2023/01/26 04:38:57;;;;;;;59.55;22.23;;;3.00;99.90;;;;;;5051373;28;20048;-63
2023/01/26 04:41:23;;;;;;;43.10;19.67;;;3.10;99.90;;;;;;5034604;28;20040;-62
2023/01/26 04:43:49;;;;;;;50.13;20.13;;;3.10;99.90;;;;;;5050518;28;20485;-63
2023/01/26 04:46:15;;;;;;;51.63;19.15;;;3.20;99.90;;;;;;5051233;28;20045;-63
2023/01/26 04:48:40;;;;;;;35.10;9.32;;;3.20;99.90;;;;;;5050877;28;20466;-62
2023/01/26 04:51:14;;;;;;;32.40;7.28;;;3.50;99.90;;;;;;5050688;28;20045;-63
2023/01/26 04:53:39;;;;;;;38.65;9.10;;;3.80;99.90;;;;;;5030754;28;20560;-62
2023/01/26 04:56:07;;;;;;;21.40;6.50;;;4.10;99.90;;;;;;5014405;28;20073;-62
2023/01/26 04:58:33;;;;;;;34.35;6.07;;;4.30;99.90;;;;;;5030820;28;20042;-63
2023/01/26 05:00:59;;;;;;;33.78;6.47;;;4.50;99.90;;;;;;5032343;28;20436;-63
2023/01/26 05:03:25;;;;;;;34.20;6.55;;;4.60;99.90;;;;;;5031741;28;20041;-63
2023/01/26 05:05:53;;;;;;;22.75;6.40;;;4.60;99.90;;;;;;5031142;28;20045;-63
2023/01/26 05:08:21;;;;;;;30.63;5.68;;;4.70;99.90;;;;;;5033744;28;20095;-63
2023/01/26 05:10:47;;;;;;;27.77;5.80;;;4.70;99.90;;;;;;5033449;28;20150;-62
2023/01/26 05:13:13;;;;;;;24.45;5.82;;;4.70;99.90;;;;;;5032544;28;20056;-62
2023/01/26 05:15:39;;;;;;;30.05;6.05;;;4.80;99.90;;;;;;5030400;28;20037;-62
2023/01/26 05:18:05;;;;;;;28.17;6.38;;;4.70;99.90;;;;;;5014025;28;20092;-63
2023/01/26 05:20:31;;;;;;;23.48;6.15;;;4.80;99.90;;;;;;5030741;28;20103;-63
2023/01/26 05:22:57;;;;;;;21.38;5.53;;;4.80;99.90;;;;;;5014462;28;20045;-62
2023/01/26 05:25:24;;;;;;;22.13;6.03;;;4.70;99.90;;;;;;5044504;28;20056;-63
2023/01/26 05:27:51;;;;;;;32.17;6.20;;;4.70;99.90;;;;;;5050391;28;20124;-63
2023/01/26 05:30:17;;;;;;;32.22;6.40;;;4.70;99.90;;;;;;5050960;28;20037;-63
2023/01/26 05:32:43;;;;;;;24.38;6.57;;;4.70;99.90;;;;;;5049176;28;20037;-63
2023/01/26 05:35:08;;;;;;;22.58;5.45;;;4.70;99.90;;;;;;5050884;28;20044;-63
2023/01/26 05:37:34;;;;;;;24.15;6.05;;;4.70;99.90;;;;;;5050230;28;20049;-63
2023/01/26 05:40:00;;;;;;;33.38;6.40;;;4.80;99.90;;;;;;5050566;28;20505;-63
2023/01/26 05:42:26;;;;;;;23.55;5.20;;;4.70;99.90;;;;;;5050178;28;20049;-63
2023/01/26 05:44:52;;;;;;;22.95;5.45;;;4.70;99.90;;;;;;5052093;28;20083;-62
2023/01/26 05:47:18;;;;;;;30.98;6.25;;;4.80;99.90;;;;;;5050267;28;20123;-63
2023/01/26 05:49:45;;;;;;;26.77;5.90;;;4.80;99.90;;;;;;5049908;28;20618;-63
2023/01/26 05:52:17;;;;;;;25.48;6.18;;;4.80;99.90;;;;;;5050182;28;20128;-63
2023/01/26 05:54:43;;;;;;;28.75;7.15;;;4.70;99.90;;;;;;5055672;28;20120;-63
2023/01/26 05:57:10;;;;;;;34.38;7.22;;;4.80;99.90;;;;;;5044707;28;20156;-63
2023/01/26 05:59:37;;;;;;;27.25;6.72;;;4.80;99.90;;;;;;5033263;28;20046;-62
2023/01/26 06:02:03;;;;;;;22.33;5.32;;;4.80;99.90;;;;;;5018112;28;20051;-63
2023/01/26 06:04:29;;;;;;;23.98;5.30;;;4.80;99.90;;;;;;5033855;28;20037;-63
2023/01/26 06:06:56;;;;;;;26.17;6.35;;;4.70;99.90;;;;;;5034146;28;20100;-63
2023/01/26 06:09:22;;;;;;;24.55;5.18;;;4.70;99.90;;;;;;5034520;28;20037;-63
2023/01/26 06:11:48;;;;;;;23.88;5.00;;;4.70;99.90;;;;;;5033628;28;20038;-63
2023/01/26 06:14:14;;;;;;;23.52;5.75;;;4.70;99.90;;;;;;5017274;28;20029;-63
2023/01/26 06:16:40;;;;;;;26.77;5.32;;;4.70;99.90;;;;;;5033646;28;20044;-63
2023/01/26 06:19:05;;;;;;;26.13;7.45;;;4.70;99.90;;;;;;5034352;28;20041;-62
2023/01/26 06:21:31;;;;;;;24.25;5.30;;;4.70;99.90;;;;;;5033134;28;20099;-63
2023/01/26 06:23:57;;;;;;;27.08;5.78;;;4.70;99.90;;;;;;5035378;28;20479;-63
2023/01/26 06:26:24;;;;;;;27.65;6.75;;;4.60;99.90;;;;;;5038335;28;20044;-63
2023/01/26 06:28:51;;;;;;;28.92;6.07;;;4.70;99.90;;;;;;5045356;28;20040;-63
2023/01/26 06:31:17;;;;;;;22.10;5.15;;;4.70;99.90;;;;;;5054813;28;20044;-62
2023/01/26 06:33:43;;;;;;;23.30;5.80;;;4.70;99.90;;;;;;5048396;28;20367;-63
2023/01/26 06:36:13;;;;;;;27.63;6.15;;;4.70;99.90;;;;;;5034976;28;20109;-63
2023/01/26 06:38:48;;;;;;;29.48;5.05;;;4.70;99.90;;;;;;5053125;28;20045;-63
2023/01/26 06:41:15;;;;;;;26.80;6.60;;;4.70;99.90;;;;;;5054060;28;20107;-63
2023/01/26 06:43:44;;;;;;;26.77;6.40;;;4.70;99.90;;;;;;5052012;28;20052;-63
2023/01/26 06:46:10;;;;;;;22.75;5.05;;;4.70;99.90;;;;;;5033515;28;20131;-63
2023/01/26 06:48:37;;;;;;;18.33;5.75;;;4.70;99.90;;;;;;5032798;28;20097;-62
2023/01/26 06:51:15;;;;;;;22.75;5.45;;;4.60;99.90;;;;;;5017447;28;20052;-63
2023/01/26 06:53:50;;;;;;;24.95;5.68;;;4.70;99.90;;;;;;5033037;28;20069;-63
2023/01/26 06:56:16;;;;;;;24.92;7.28;;;4.70;99.90;;;;;;5037695;28;20375;-62
2023/01/26 06:58:42;;;;;;;28.98;6.40;;;4.60;99.90;;;;;;5041497;28;20112;-63
2023/01/26 07:01:23;;;;;;;25.50;6.68;;;4.60;99.90;;;;;;5035025;28;20057;-63
2023/01/26 07:03:50;;;;;;;26.63;5.82;;;4.70;99.90;;;;;;5033606;28;20049;-62
2023/01/26 07:06:16;;;;;;;18.98;5.57;;;4.70;99.90;;;;;;5032754;28;20049;-63
2023/01/26 07:08:42;;;;;;;25.77;5.78;;;4.60;99.90;;;;;;5034016;28;20052;-63
2023/01/26 07:11:09;;;;;;;19.48;4.53;;;4.60;99.90;;;;;;5033009;28;20049;-63
2023/01/26 07:13:35;;;;;;;25.65;6.20;;;4.60;99.90;;;;;;5034050;28;20047;-63
2023/01/26 07:16:06;;;;;;;23.98;5.38;;;4.50;99.90;;;;;;5050721;28;20132;-62
2023/01/26 07:18:32;;;;;;;20.90;5.55;;;4.50;99.90;;;;;;5050921;28;20521;-63
2023/01/26 07:21:01;;;;;;;24.30;5.47;;;4.40;99.90;;;;;;5034157;28;20184;-62
2023/01/26 07:23:27;;;;;;;24.02;4.80;;;4.40;99.90;;;;;;5029711;28;20490;-62
2023/01/26 07:25:53;;;;;;;17.70;5.35;;;4.40;99.90;;;;;;5030510;28;20584;-63
2023/01/26 07:28:19;;;;;;;17.60;4.70;;;4.40;99.90;;;;;;5043728;28;20080;-63
2023/01/26 07:30:44;;;;;;;34.47;7.65;;;4.40;99.90;;;;;;5012069;28;20041;-63
2023/01/26 07:33:10;;;;;;;28.08;6.32;;;4.30;99.90;;;;;;5028774;28;20037;-63
2023/01/26 07:35:36;;;;;;;14.82;4.20;;;4.30;99.90;;;;;;5036641;28;20045;-62
2023/01/26 07:38:05;;;;;;;20.20;5.47;;;4.30;99.90;;;;;;5017471;28;20484;-63
2023/01/26 07:40:30;;;;;;;22.75;5.35;;;4.30;99.90;;;;;;5022716;28;20044;-63
2023/01/26 07:42:57;;;;;;;27.08;5.25;;;4.30;99.90;;;;;;5030457;28;20045;-63
2023/01/26 07:45:23;;;;;;;21.58;5.18;;;4.20;99.90;;;;;;5030719;28;20041;-63
2023/01/26 07:47:49;;;;;;;33.25;6.15;;;4.20;99.90;;;;;;5012321;28;20391;-63
2023/01/26 07:50:15;;;;;;;21.92;4.60;;;4.20;99.90;;;;;;5030523;28;20044;-62
2023/01/26 07:52:42;;;;;;;22.40;5.50;;;4.30;99.90;;;;;;5012586;28;20045;-63
2023/01/26 07:55:08;;;;;;;25.75;5.10;;;4.30;99.90;;;;;;5031020;28;20516;-63
2023/01/26 07:57:33;;;;;;;20.73;5.25;;;4.30;99.90;;;;;;5038178;28;20045;-63
2023/01/26 07:59:59;;;;;;;19.13;4.70;;;4.30;99.90;;;;;;5041026;28;20096;-62
2023/01/26 08:02:25;;;;;;;26.75;4.63;;;4.30;99.90;;;;;;5020327;28;20044;-63
2023/01/26 08:04:51;;;;;;;17.98;4.38;;;4.30;99.90;;;;;;5036020;28;20141;-63
2023/01/26 08:07:16;;;;;;;17.48;5.53;;;4.30;99.90;;;;;;5031309;28;20866;-63
2023/01/26 08:09:42;;;;;;;20.55;4.40;;;4.30;99.90;;;;;;5049378;28;20041;-63
2023/01/26 08:12:08;;;;;;;22.10;4.70;;;4.30;99.90;;;;;;5049998;28;20638;-63
2023/01/26 08:14:34;;;;;;;20.73;5.28;;;4.30;99.90;;;;;;5048275;28;20048;-63
2023/01/26 08:17:01;;;;;;;21.50;6.03;;;4.30;99.90;;;;;;5032427;28;20397;-62
2023/01/26 08:19:26;;;;;;;21.60;4.72;;;4.30;99.90;;;;;;5047469;28;20057;-63
2023/01/26 08:21:53;;;;;;;27.25;4.30;;;4.30;99.90;;;;;;5028164;28;20052;-63
2023/01/26 08:24:19;;;;;;;23.67;4.45;;;4.40;99.90;;;;;;5042889;28;20124;-63
2023/01/26 08:26:44;;;;;;;21.17;4.97;;;4.40;99.90;;;;;;5044844;28;20072;-62
2023/01/26 08:29:11;;;;;;;20.05;5.18;;;4.40;99.90;;;;;;5054831;28;20185;-63
2023/01/26 08:31:36;;;;;;;20.38;4.22;;;4.40;99.90;;;;;;5036331;28;20136;-63
2023/01/26 08:34:03;;;;;;;28.20;6.13;;;4.40;99.90;;;;;;5021012;28;20140;-63
2023/01/26 08:36:29;;;;;;;23.33;4.95;;;4.50;99.90;;;;;;5034554;28;20132;-62
2023/01/26 08:38:55;;;;;;;21.23;4.20;;;4.60;99.90;;;;;;5031641;28;20148;-62
2023/01/26 08:41:21;;;;;;;26.67;4.85;;;4.60;99.90;;;;;;5040762;28;20041;-63
2023/01/26 08:43:47;;;;;;;25.17;4.82;;;4.60;99.90;;;;;;5012024;28;20119;-62
2023/01/26 08:46:13;;;;;;;23.92;3.95;;;4.60;99.90;;;;;;5026855;28;20087;-63
2023/01/26 08:48:38;;;;;;;18.17;4.35;;;4.70;99.90;;;;;;5043759;28;20117;-63
2023/01/26 08:51:06;;;;;;;22.73;5.18;;;4.60;99.90;;;;;;5029546;28;20049;-63
2023/01/26 08:53:33;;;;;;;22.67;5.10;;;4.70;99.90;;;;;;5035224;28;20048;-63
2023/01/26 08:56:07;;;;;;;20.50;5.25;;;4.70;99.90;;;;;;5048176;28;20048;-63
2023/01/26 08:58:34;;;;;;;23.85;5.75;;;4.70;99.90;;;;;;5028000;28;20052;-63
2023/01/26 09:01:07;;;;;;;21.27;5.30;;;4.70;99.90;;;;;;5029472;28;20434;-63
2023/01/26 09:03:33;;;;;;;25.83;4.82;;;4.80;99.90;;;;;;5029330;28;20064;-63
2023/01/26 09:06:00;;;;;;;22.23;5.38;;;4.80;99.90;;;;;;5045359;28;20049;-63
2023/01/26 09:08:26;;;;;;;25.52;5.35;;;4.80;99.90;;;;;;5041785;28;20048;-63
2023/01/26 09:10:51;;;;;;;22.83;5.80;;;4.90;99.90;;;;;;5039949;28;20478;-62
2023/01/26 09:13:17;;;;;;;23.20;5.43;;;5.00;99.90;;;;;;5028441;28;20029;-63
2023/01/26 09:15:43;;;;;;;23.30;5.30;;;5.10;99.90;;;;;;5022584;28;20037;-63
2023/01/26 09:18:11;;;;;;;23.58;5.95;;;5.10;99.90;;;;;;5029924;28;20033;-63
2023/01/26 09:20:37;;;;;;;19.25;5.30;;;5.20;99.90;;;;;;5027692;28;20132;-62
2023/01/26 09:23:03;;;;;;;22.27;4.97;;;5.40;99.90;;;;;;5047432;28;20496;-62
2023/01/26 09:25:29;;;;;;;18.73;4.82;;;5.40;99.90;;;;;;5035603;28;20131;-63
2023/01/26 09:27:55;;;;;;;22.60;5.18;;;5.50;99.90;;;;;;5036301;28;20389;-63
2023/01/26 09:30:23;;;;;;;20.58;5.13;;;5.50;99.90;;;;;;5032395;28;20041;-62
2023/01/26 09:32:50;;;;;;;30.25;5.63;;;5.60;99.90;;;;;;5014216;28;20037;-63
2023/01/26 09:35:16;;;;;;;29.48;6.60;;;5.60;99.90;;;;;;5035220;28;20116;-63
2023/01/26 09:37:44;;;;;;;21.52;4.68;;;5.70;99.90;;;;;;5031315;28;20608;-64
2023/01/26 09:40:29;;;;;;;22.90;4.80;;;5.80;99.90;;;;;;5035592;28;20056;-63
2023/01/26 09:42:59;;;;;;;22.33;4.65;;;5.80;99.90;;;;;;5035252;28;20755;-68
2023/01/26 09:45:58;;;;;;;22.23;5.38;;;5.90;99.90;;;;;;5028085;28;20160;-62
2023/01/26 09:48:46;;;;;;;18.10;4.97;;;6.00;99.90;;;;;;5023579;28;20808;-62
2023/01/26 09:51:34;;;;;;;26.40;5.32;;;6.10;99.90;;;;;;5031355;28;20048;-62
2023/01/26 09:54:14;;;;;;;28.75;6.40;;;6.20;99.90;;;;;;5039916;28;20088;-62
2023/01/26 09:56:40;;;;;;;17.38;4.22;;;6.20;99.90;;;;;;5011222;28;20084;-62
2023/01/26 09:59:20;;;;;;;17.73;4.63;;;6.30;99.90;;;;;;5035408;28;20069;-63
2023/01/26 10:02:12;;;;;;;25.58;4.97;;;6.40;99.90;;;;;;5031738;28;20056;-62
2023/01/26 10:04:42;;;;;;;19.85;4.22;;;6.50;99.90;;;;;;5038732;28;20053;-62
2023/01/26 10:07:16;;;;;;;20.92;4.75;;;6.50;99.90;;;;;;5050844;28;20043;-62
2023/01/26 10:09:46;;;;;;;17.63;3.53;;;6.60;99.90;;;;;;5047824;28;20085;-63
2023/01/26 10:12:32;;;;;;;20.40;4.28;;;6.50;99.90;;;;;;5034908;28;20049;-63
2023/01/26 10:15:23;;;;;;;19.17;4.32;;;6.50;99.90;;;;;;5039113;28;20064;-63
2023/01/26 10:17:51;;;;;;;20.42;4.07;;;6.60;99.90;;;;;;5038737;28;20128;-64
2023/01/26 10:20:31;;;;;;;15.90;4.43;;;6.60;99.90;;;;;;5033771;28;20041;-64
2023/01/26 10:23:03;;;;;;;14.25;4.10;;;6.60;99.90;;;;;;5033494;28;20402;-63
2023/01/26 10:25:35;;;;;;;17.00;3.35;;;6.60;99.90;;;;;;5049729;28;20041;-63
2023/01/26 10:28:12;;;;;;;15.45;3.67;;;6.70;99.90;;;;;;5033434;28;20041;-63
2023/01/26 10:30:40;;;;;;;19.55;4.95;;;6.80;99.90;;;;;;5049467;28;20045;-64
2023/01/26 10:33:15;;;;;;;19.38;4.32;;;6.90;99.90;;;;;;5050329;28;20087;-63
2023/01/26 10:35:41;;;;;;;15.35;3.80;;;7.10;99.90;;;;;;5032458;28;20053;-64
2023/01/26 10:38:32;;;;;;;16.23;4.20;;;7.20;99.90;;;;;;5033842;28;20033;-63
2023/01/26 10:41:02;;;;;;;17.10;4.20;;;7.30;99.90;;;;;;5035790;28;20489;-63
2023/01/26 10:43:29;;;;;;;17.80;3.22;;;7.30;99.90;;;;;;5036677;28;20049;-63
2023/01/26 10:45:55;;;;;;;19.23;3.22;;;7.40;99.90;;;;;;5036914;28;20068;-63
2023/01/26 10:48:23;;;;;;;22.92;3.70;;;7.30;99.90;;;;;;5053238;28;20037;-63
2023/01/26 10:50:49;;;;;;;14.25;2.58;;;7.30;99.90;;;;;;5052882;28;20072;-63
2023/01/26 10:53:28;;;;;;;14.80;2.90;;;7.10;99.90;;;;;;5055459;28;20040;-63
2023/01/26 10:55:58;;;;;;;14.57;4.25;;;7.10;99.90;;;;;;5054572;28;20116;-63
2023/01/26 10:58:46;;;;;;;14.70;3.30;;;6.90;99.90;;;;;;5054725;28;20037;-63
2023/01/26 11:01:14;;;;;;;22.17;3.60;;;6.80;99.90;;;;;;5053637;28;20040;-63
2023/01/26 11:03:42;;;;;;;11.15;2.63;;;6.70;99.90;;;;;;5036152;28;20045;-63
2023/01/26 11:06:14;;;;;;;16.90;3.45;;;6.70;99.90;;;;;;5053072;28;20041;-63
2023/01/26 11:08:40;;;;;;;11.52;2.75;;;6.70;99.90;;;;;;5052739;28;20045;-63
2023/01/26 11:11:20;;;;;;;12.88;3.22;;;6.60;99.90;;;;;;5053173;28;20455;-63
2023/01/26 11:13:46;;;;;;;12.98;3.25;;;6.60;99.90;;;;;;5053865;28;20060;-63
2023/01/26 11:16:25;;;;;;;18.45;3.70;;;6.60;99.90;;;;;;5052736;28;20363;-63
2023/01/26 11:18:59;;;;;;;12.35;3.42;;;6.70;99.90;;;;;;5052659;28;20490;-63
2023/01/26 11:21:28;;;;;;;14.80;3.33;;;6.70;99.90;;;;;;5052948;28;20036;-63
2023/01/26 11:24:14;;;;;;;21.48;4.28;;;6.80;99.90;;;;;;5052562;28;20126;-63
2023/01/26 11:26:48;;;;;;;40.67;14.38;;;6.90;99.90;;;;;;5052454;28;20077;-63
2023/01/26 11:29:31;;;;;;;45.60;18.63;;;6.90;99.90;;;;;;5052947;28;20049;-63
2023/01/26 11:32:18;;;;;;;36.60;12.73;;;7.00;99.90;;;;;;5053698;28;20705;-63
2023/01/26 11:35:09;;;;;;;21.75;5.82;;;7.10;99.90;;;;;;5035596;28;20048;-63
2023/01/26 11:37:35;;;;;;;19.20;5.63;;;7.20;99.90;;;;;;5052932;28;20102;-63
2023/01/26 11:40:32;;;;;;;18.92;4.07;;;7.30;99.90;;;;;;5052857;28;20044;-63
2023/01/26 11:43:03;;;;;;;16.50;3.90;;;7.40;99.90;;;;;;5052779;28;20041;-63
2023/01/26 11:45:52;;;;;;;13.05;3.28;;;7.40;99.90;;;;;;5051523;28;20048;-64
2023/01/26 11:48:51;;;;;;;14.95;4.18;;;7.50;99.90;;;;;;5052316;28;20551;-63
2023/01/26 11:51:17;;;;;;;15.95;3.72;;;7.40;99.90;;;;;;5051946;28;20041;-63
2023/01/26 11:54:08;;;;;;;15.95;3.80;;;7.50;99.90;;;;;;5053325;28;20033;-63
2023/01/26 11:56:51;;;;;;;16.70;4.32;;;7.50;99.90;;;;;;5053400;28;20432;-64
2023/01/26 11:59:25;;;;;;;13.63;2.90;;;7.50;99.90;;;;;;5051911;28;20102;-63
2023/01/26 12:02:14;;;;;;;17.13;2.55;;;7.50;99.90;;;;;;5035327;28;20072;-64
2023/01/26 12:04:44;;;;;;;14.15;2.60;;;7.60;99.90;;;;;;5051729;28;20044;-63
2023/01/26 12:07:54;;;;;;;13.88;2.50;;;7.70;99.90;;;;;;5051755;28;20049;-63
2023/01/26 12:10:38;;;;;;;17.58;3.20;;;7.70;99.90;;;;;;5042043;28;20044;-63
2023/01/26 12:13:21;;;;;;;9.82;2.30;;;7.70;99.90;;;;;;5035133;28;20037;-63
2023/01/26 12:15:53;;;;;;;15.13;3.63;;;7.70;99.90;;;;;;5051364;28;20087;-63
2023/01/26 12:18:44;;;;;;;13.80;3.00;;;7.70;99.90;;;;;;5052171;28;20041;-63
2023/01/26 12:21:10;;;;;;;14.20;3.53;;;7.70;99.90;;;;;;5034896;28;20492;-63
2023/01/26 12:23:55;;;;;;;21.27;3.95;;;7.70;99.90;;;;;;5051463;28;20040;-63
2023/01/26 12:26:23;;;;;;;15.45;3.50;;;7.70;99.90;;;;;;5052616;28;20490;-63
2023/01/26 12:29:07;;;;;;;13.40;2.97;;;7.70;99.90;;;;;;5051084;28;20037;-63
2023/01/26 12:31:53;;;;;;;17.50;3.28;;;7.70;99.90;;;;;;5051237;28;20049;-63
2023/01/26 12:34:28;;;;;;;10.55;2.60;;;7.70;99.90;;;;;;5051187;28;20051;-63
2023/01/26 12:37:13;;;;;;;13.32;2.53;;;7.70;99.90;;;;;;5052794;28;20052;-63
2023/01/26 12:39:38;;;;;;;11.15;2.47;;;7.70;99.90;;;;;;5052445;28;20425;-63
2023/01/26 12:42:19;;;;;;;12.05;2.25;;;7.60;99.90;;;;;;5052350;28;20041;-63
2023/01/26 12:45:00;;;;;;;11.18;2.25;;;7.70;99.90;;;;;;5050629;28;20076;-63
2023/01/26 12:47:34;;;;;;;15.55;3.25;;;7.60;99.90;;;;;;5050559;28;20052;-63
2023/01/26 12:50:26;;;;;;;14.90;3.47;;;7.70;99.90;;;;;;5051166;28;20051;-63
2023/01/26 12:53:15;;;;;;;10.35;2.08;;;7.70;99.90;;;;;;5046679;28;20489;-63
2023/01/26 12:55:48;;;;;;;14.32;3.47;;;7.70;99.90;;;;;;5050117;28;20040;-63
2023/01/26 12:58:17;;;;;;;9.32;2.67;;;7.70;99.90;;;;;;5051420;28;20083;-63
2023/01/26 13:00:51;;;;;;;12.77;2.30;;;7.70;99.90;;;;;;5050806;28;20048;-63
2023/01/26 13:03:24;;;;;;;13.07;2.60;;;7.70;99.90;;;;;;5050570;28;20482;-63
2023/01/26 13:06:13;;;;;;;12.82;3.22;;;7.70;99.90;;;;;;5052109;28;20624;-63
2023/01/26 13:09:03;;;;;;;8.52;2.60;;;7.70;99.90;;;;;;5044625;28;20604;-63
2023/01/26 13:11:42;;;;;;;8.15;2.17;;;7.70;99.90;;;;;;5050169;28;20048;-63
2023/01/26 13:14:37;;;;;;;14.55;2.47;;;7.70;99.90;;;;;;5052425;28;20037;-63
2023/01/26 13:17:15;;;;;;;10.30;2.28;;;7.70;99.90;;;;;;5050775;28;20393;-63
2023/01/26 13:19:43;;;;;;;10.15;2.53;;;7.70;99.90;;;;;;5050298;28;20040;-63
2023/01/26 13:22:36;;;;;;;14.63;3.78;;;7.70;99.90;;;;;;5051133;28;20427;-63
2023/01/26 13:25:16;;;;;;;13.13;2.67;;;7.60;99.90;;;;;;5052141;28;20049;-63
2023/01/26 13:27:57;;;;;;;9.43;2.58;;;7.60;99.90;;;;;;5050445;28;20075;-63
2023/01/26 13:30:25;;;;;;;15.05;2.92;;;7.60;99.90;;;;;;5050381;28;20045;-63
2023/01/26 13:33:00;;;;;;;12.10;2.58;;;7.60;99.90;;;;;;5050377;28;20572;-63
2023/01/26 13:35:26;;;;;;;12.80;2.60;;;7.60;99.90;;;;;;5050479;28;20041;-63
2023/01/26 13:37:52;;;;;;;23.40;3.38;;;7.60;99.90;;;;;;5050410;28;20044;-62
2023/01/26 13:40:23;;;;;;;11.52;2.78;;;7.60;99.90;;;;;;5034105;28;20037;-63
2023/01/26 13:43:00;;;;;;;14.48;3.13;;;7.60;99.90;;;;;;5050077;28;20127;-63
2023/01/26 13:45:45;;;;;;;8.85;2.30;;;7.50;99.90;;;;;;5049973;28;20049;-63
2023/01/26 13:48:27;;;;;;;7.88;2.15;;;7.50;99.90;;;;;;5050612;28;20497;-63